createdAt,value
2022-12-08T00:01:27.019Z,22.42
2022-12-08T00:03:54.709Z,25.75
2022-12-08T00:06:45.200Z,16.15
2022-12-08T00:09:22.778Z,10.50
2022-12-08T00:12:01.041Z,12.82
2022-12-08T00:14:30.998Z,10.77
2022-12-08T00:16:58.801Z,7.20
2022-12-08T00:19:26.992Z,7.88
2022-12-08T00:21:55.442Z,7.10
2022-12-08T00:24:24.224Z,7.97
2022-12-08T00:26:51.818Z,6.53
2022-12-08T00:29:19.355Z,6.43
2022-12-08T00:31:46.816Z,8.75
2022-12-08T00:34:14.949Z,9.20
2022-12-08T00:36:43.388Z,7.95
2022-12-08T00:39:12.201Z,6.85
2022-12-08T00:41:57.801Z,7.28
2022-12-08T00:44:25.139Z,5.50
2022-12-08T00:46:52.444Z,7.85
2022-12-08T00:49:19.986Z,4.50
2022-12-08T00:51:47.606Z,10.63
2022-12-08T00:54:14.982Z,4.50
2022-12-08T00:56:42.413Z,9.27
2022-12-08T00:59:09.735Z,7.43
2022-12-08T01:01:37.249Z,9.25
2022-12-08T01:04:06.081Z,6.05
2022-12-08T01:06:35.810Z,3.78
2022-12-08T01:09:04.392Z,8.88
2022-12-08T01:11:31.698Z,7.22
2022-12-08T01:13:58.975Z,8.30
2022-12-08T01:16:28.869Z,7.00
2022-12-08T01:18:57.870Z,6.32
2022-12-08T01:21:25.257Z,7.05
2022-12-08T01:23:52.594Z,4.90
2022-12-08T01:26:22.876Z,6.97
2022-12-08T01:28:50.196Z,5.88
2022-12-08T01:31:19.762Z,4.53
2022-12-08T01:33:47.910Z,4.43
2022-12-08T01:36:37.204Z,3.40
2022-12-08T01:39:06.756Z,2.15
2022-12-08T01:41:38.029Z,3.85
2022-12-08T01:44:10.875Z,1.88
2022-12-08T01:46:43.907Z,1.35
2022-12-08T01:49:30.993Z,6.03
2022-12-08T01:52:03.566Z,4.60
2022-12-08T01:54:33.740Z,3.38
2022-12-08T01:57:01.429Z,2.60
2022-12-08T01:59:29.465Z,3.05
2022-12-08T02:01:57.309Z,5.55
2022-12-08T02:04:24.633Z,4.80
2022-12-08T02:06:52.584Z,6.55
2022-12-08T02:09:20.528Z,2.85
2022-12-08T02:11:48.667Z,7.95
2022-12-08T02:14:16.118Z,3.22
2022-12-08T02:16:55.068Z,1.83
2022-12-08T02:19:40.974Z,7.25
2022-12-08T02:22:22.344Z,3.75
2022-12-08T02:25:01.614Z,5.60
2022-12-08T02:27:41.678Z,4.97
2022-12-08T02:30:16.012Z,4.00
2022-12-08T02:32:52.369Z,4.65
2022-12-08T02:35:32.339Z,5.53
2022-12-08T02:38:05.566Z,3.83
2022-12-08T02:40:37.385Z,4.57
2022-12-08T02:43:09.592Z,6.30
2022-12-08T02:45:39.609Z,5.82
2022-12-08T02:48:07.117Z,6.63
2022-12-08T02:50:34.506Z,7.63
2022-12-08T02:53:02.914Z,5.78
2022-12-08T02:55:42.869Z,6.40
2022-12-08T02:58:38.151Z,6.70
2022-12-08T03:01:44.276Z,5.57
2022-12-08T03:04:32.557Z,5.53
2022-12-08T03:07:15.202Z,5.85
2022-12-08T03:09:44.392Z,4.05
2022-12-08T03:12:38.388Z,7.28
2022-12-08T03:15:13.384Z,6.07
2022-12-08T03:17:44.079Z,4.07
2022-12-08T03:20:14.202Z,3.65
2022-12-08T03:22:42.680Z,4.95
2022-12-08T03:25:12.696Z,4.28
2022-12-08T03:27:43.529Z,5.80
2022-12-08T03:30:11.401Z,3.13
2022-12-08T03:32:47.663Z,6.90
2022-12-08T03:35:20.502Z,4.22
2022-12-08T03:37:48.109Z,2.88
2022-12-08T03:40:18.452Z,3.95
2022-12-08T03:42:45.715Z,6.30
2022-12-08T03:45:12.949Z,8.23
2022-12-08T03:47:40.241Z,6.72
2022-12-08T03:50:07.958Z,5.55
2022-12-08T03:52:35.291Z,6.85
2022-12-08T03:55:02.572Z,5.63
2022-12-08T03:57:29.873Z,5.85
2022-12-08T03:59:57.219Z,9.40
2022-12-08T04:02:24.601Z,3.95
2022-12-08T04:04:52.136Z,7.38
2022-12-08T04:07:19.362Z,6.47
2022-12-08T04:09:46.542Z,9.30
2022-12-08T04:12:13.831Z,7.25
2022-12-08T04:14:41.140Z,5.63
2022-12-08T04:17:08.410Z,10.50
2022-12-08T04:19:35.707Z,11.00
2022-12-08T04:22:02.933Z,5.05
2022-12-08T04:24:30.246Z,11.35
2022-12-08T04:26:57.470Z,6.53
2022-12-08T04:29:24.686Z,5.28
2022-12-08T04:31:52.040Z,5.97
2022-12-08T04:34:19.287Z,5.95
2022-12-08T04:36:46.511Z,9.57
2022-12-08T04:39:13.765Z,5.60
2022-12-08T04:41:41.160Z,8.55
2022-12-08T04:44:08.475Z,6.55
2022-12-08T04:46:40.218Z,3.58
2022-12-08T04:49:10.357Z,9.65
2022-12-08T04:51:37.674Z,4.38
2022-12-08T04:54:05.076Z,2.80
2022-12-08T04:56:32.791Z,3.53
2022-12-08T04:59:00.083Z,6.35
2022-12-08T05:01:27.484Z,4.78
2022-12-08T05:03:54.777Z,4.43
2022-12-08T05:06:22.195Z,5.93
2022-12-08T05:08:49.552Z,1.75
2022-12-08T05:11:16.820Z,3.72
2022-12-08T05:13:44.013Z,4.03
2022-12-08T05:16:13.626Z,2.45
2022-12-08T05:18:41.930Z,2.85
2022-12-08T05:21:09.868Z,1.90
2022-12-08T05:23:37.332Z,5.18
2022-12-08T05:26:04.746Z,2.67
2022-12-08T05:28:41.337Z,2.97
2022-12-08T05:31:10.403Z,3.08
2022-12-08T05:33:37.709Z,4.15
2022-12-08T05:36:05.093Z,5.20
2022-12-08T05:38:33.328Z,3.38
2022-12-08T05:41:00.687Z,2.70
2022-12-08T05:43:28.095Z,2.03
2022-12-08T05:45:55.463Z,3.83
2022-12-08T05:48:22.756Z,4.47
2022-12-08T05:50:51.032Z,4.10
2022-12-08T05:53:19.910Z,5.35
2022-12-08T05:55:47.939Z,4.72
2022-12-08T05:58:19.736Z,4.57
2022-12-08T06:00:48.258Z,6.32
2022-12-08T06:03:17.068Z,4.65
2022-12-08T06:05:45.687Z,7.75
2022-12-08T06:08:13.356Z,5.50
2022-12-08T06:10:44.671Z,8.57
2022-12-08T06:13:12.110Z,8.95
2022-12-08T06:15:39.934Z,8.85
2022-12-08T06:18:08.166Z,4.53
2022-12-08T06:20:35.604Z,3.75
2022-12-08T06:23:03.583Z,4.93
2022-12-08T06:25:30.878Z,4.35
2022-12-08T06:27:58.160Z,4.88
2022-12-08T06:30:26.070Z,5.85
2022-12-08T06:32:53.331Z,3.40
2022-12-08T06:35:20.696Z,3.78
2022-12-08T06:37:50.231Z,2.15
2022-12-08T06:40:17.552Z,3.28
2022-12-08T06:42:46.601Z,5.22
2022-12-08T06:45:15.943Z,2.08
2022-12-08T06:47:43.441Z,1.55
2022-12-08T06:50:11.853Z,2.25
2022-12-08T06:52:49.371Z,2.33
2022-12-08T06:55:50.843Z,2.60
2022-12-08T06:58:11.849Z,1.52
2022-12-08T07:00:39.776Z,3.90
2022-12-08T07:03:08.763Z,4.68
2022-12-08T07:05:36.909Z,3.60
2022-12-08T07:08:07.172Z,4.65
2022-12-08T07:10:35.234Z,5.53
2022-12-08T07:16:10.588Z,3.67
2022-12-08T07:18:38.497Z,4.90
2022-12-08T07:21:11.339Z,5.60
2022-12-08T07:23:39.268Z,4.63
2022-12-08T07:26:08.646Z,5.53
2022-12-08T07:29:04.414Z,5.82
2022-12-08T07:31:32.020Z,3.85
2022-12-08T07:33:59.580Z,5.75
2022-12-08T07:36:27.825Z,5.93
2022-12-08T07:38:55.226Z,10.43
2022-12-08T07:41:24.193Z,4.28
2022-12-08T07:43:51.912Z,6.03
2022-12-08T07:46:21.308Z,7.15
2022-12-08T07:48:59.200Z,6.88
2022-12-08T07:51:26.583Z,7.80
2022-12-08T07:53:55.068Z,5.10
2022-12-08T07:56:23.067Z,6.43
2022-12-08T07:58:50.542Z,8.52
2022-12-08T08:01:27.964Z,6.88
2022-12-08T08:03:57.398Z,7.75
2022-12-08T08:06:25.029Z,7.57
2022-12-08T08:08:52.262Z,4.45
2022-12-08T08:11:21.553Z,8.45
2022-12-08T08:13:49.991Z,5.13
2022-12-08T08:16:18.096Z,8.05
2022-12-08T08:18:48.931Z,7.93
2022-12-08T08:21:43.993Z,4.43
2022-12-08T08:24:07.528Z,6.55
2022-12-08T08:26:36.065Z,4.25
2022-12-08T08:29:03.384Z,4.93
2022-12-08T08:31:30.953Z,7.63
2022-12-08T08:33:58.732Z,3.95
2022-12-08T08:36:25.990Z,6.47
2022-12-08T08:38:53.252Z,6.20
2022-12-08T08:41:20.466Z,2.60
2022-12-08T08:43:47.746Z,4.35
2022-12-08T08:46:15.114Z,5.82
2022-12-08T08:48:42.454Z,4.03
2022-12-08T08:51:18.905Z,5.78
2022-12-08T08:53:46.467Z,2.65
2022-12-08T08:56:15.507Z,4.53
2022-12-08T08:58:42.982Z,2.15
2022-12-08T09:01:14.648Z,6.00
2022-12-08T09:03:41.945Z,2.33
2022-12-08T09:06:09.248Z,2.60
2022-12-08T09:08:40.298Z,4.05
2022-12-08T09:11:08.302Z,2.10
2022-12-08T09:13:35.927Z,1.17
2022-12-08T09:16:04.982Z,1.75
2022-12-08T09:18:32.851Z,3.08
2022-12-08T09:21:15.117Z,2.83
2022-12-08T09:23:42.805Z,2.87
2022-12-08T09:26:10.394Z,1.45
2022-12-08T09:28:38.445Z,1.90
2022-12-08T09:31:07.192Z,4.03
2022-12-08T09:33:34.667Z,5.45
2022-12-08T09:36:07.295Z,1.70
2022-12-08T09:38:37.007Z,4.38
2022-12-08T09:41:14.373Z,2.88
2022-12-08T09:44:12.507Z,2.10
2022-12-08T09:46:40.282Z,2.42
2022-12-08T09:49:16.721Z,2.58
2022-12-08T09:51:45.773Z,1.45
2022-12-08T09:54:18.116Z,3.40
2022-12-08T09:56:45.448Z,2.67
2022-12-08T09:59:29.690Z,2.97
2022-12-08T10:01:57.269Z,3.55
2022-12-08T10:04:27.998Z,4.43
2022-12-08T10:07:17.036Z,4.72
2022-12-08T10:10:01.635Z,4.97
2022-12-08T10:12:50.681Z,6.28
2022-12-08T10:15:39.247Z,5.45
2022-12-08T10:18:16.275Z,6.70
2022-12-08T10:20:45.793Z,3.50
2022-12-08T10:23:12.992Z,6.28
2022-12-08T10:25:45.332Z,5.07
2022-12-08T10:28:13.298Z,4.15
2022-12-08T10:30:40.840Z,5.95
2022-12-08T10:33:17.316Z,3.83
2022-12-08T10:35:46.234Z,3.83
2022-12-08T10:38:31.826Z,4.30
2022-12-08T10:41:20.837Z,6.22
2022-12-08T10:43:50.301Z,6.40
2022-12-08T10:46:22.542Z,6.22
2022-12-08T10:49:08.719Z,5.82
2022-12-08T10:51:39.751Z,6.78
2022-12-08T10:54:33.169Z,5.65
2022-12-08T10:59:27.676Z,7.85
2022-12-08T11:02:03.782Z,7.63
2022-12-08T11:04:37.266Z,7.70
2022-12-08T11:07:20.264Z,8.32
2022-12-08T11:09:50.796Z,7.90
2022-12-08T11:12:22.386Z,11.88
2022-12-08T11:14:56.291Z,18.13
2022-12-08T11:17:24.913Z,9.25
2022-12-08T11:20:08.952Z,9.30
2022-12-08T11:22:40.006Z,9.77
2022-12-08T11:25:33.494Z,10.23
2022-12-08T11:28:02.198Z,10.90
2022-12-08T11:30:38.356Z,7.75
2022-12-08T11:33:19.517Z,8.55
2022-12-08T11:35:50.492Z,7.30
2022-12-08T11:38:24.309Z,9.70
2022-12-08T11:40:56.818Z,9.20
2022-12-08T11:43:30.786Z,8.90
2022-12-08T11:46:03.486Z,11.00
2022-12-08T11:48:37.527Z,12.90
2022-12-08T11:51:13.474Z,9.95
2022-12-08T11:54:07.140Z,12.95
2022-12-08T11:56:54.061Z,11.55
2022-12-08T11:59:31.918Z,11.63
2022-12-08T12:02:01.060Z,11.95
2022-12-08T12:04:50.149Z,11.98
2022-12-08T12:07:39.293Z,16.77
2022-12-08T12:10:18.944Z,15.20
2022-12-08T12:13:15.372Z,16.63
2022-12-08T12:16:21.134Z,17.50
2022-12-08T12:18:57.765Z,12.88
2022-12-08T12:21:46.254Z,12.70
2022-12-08T12:24:23.920Z,14.45
2022-12-08T12:27:03.278Z,13.70
2022-12-08T12:29:33.296Z,15.07
2022-12-08T12:32:09.487Z,11.30
2022-12-08T12:34:55.306Z,11.43
2022-12-08T12:37:40.062Z,8.75
2022-12-08T12:40:17.360Z,9.50
2022-12-08T12:42:55.280Z,5.43
2022-12-08T12:45:22.451Z,7.30
2022-12-08T12:48:01.490Z,7.47
2022-12-08T12:50:34.786Z,4.13
2022-12-08T12:53:16.534Z,5.15
2022-12-08T12:56:00.470Z,3.13
2022-12-08T12:58:36.746Z,5.40
2022-12-08T13:01:13.100Z,3.65
2022-12-08T13:03:45.632Z,3.22
2022-12-08T13:06:15.090Z,4.85
2022-12-08T13:08:54.423Z,4.88
2022-12-08T13:11:22.441Z,3.75
2022-12-08T13:14:03.997Z,3.55
2022-12-08T13:16:38.459Z,6.88
2022-12-08T13:19:12.803Z,4.50
2022-12-08T13:21:46.363Z,5.32
2022-12-08T13:24:20.127Z,4.15
2022-12-08T13:26:49.483Z,6.93
2022-12-08T13:29:22.485Z,3.28
2022-12-08T13:32:05.232Z,6.28
2022-12-08T13:35:00.187Z,2.17
2022-12-08T13:37:53.888Z,4.15
2022-12-08T13:40:27.256Z,4.28
2022-12-08T13:43:25.769Z,3.75
2022-12-08T13:57:33.064Z,6.05
2022-12-08T14:00:02.418Z,7.78
2022-12-08T14:02:40.700Z,4.78
2022-12-08T14:05:35.190Z,4.60
2022-12-08T14:07:58.575Z,4.28
2022-12-08T14:10:28.850Z,4.90
2022-12-08T14:13:03.302Z,4.93
2022-12-08T14:15:37.828Z,3.95
2022-12-08T14:18:07.402Z,4.53
2022-12-08T14:20:57.805Z,3.45
2022-12-08T14:23:23.103Z,5.25
2022-12-08T14:25:50.410Z,5.85
2022-12-08T14:28:17.949Z,3.00
2022-12-08T14:30:45.619Z,5.68
2022-12-08T14:33:17.440Z,6.10
2022-12-08T14:35:50.748Z,2.85
2022-12-08T14:38:20.361Z,5.68
2022-12-08T14:41:08.672Z,4.53
2022-12-08T14:43:36.259Z,3.28
2022-12-08T14:46:06.828Z,3.60
2022-12-08T14:48:34.168Z,4.85
2022-12-08T14:51:40.224Z,4.45
2022-12-08T14:54:13.425Z,1.67
2022-12-08T14:56:53.573Z,6.97
2022-12-08T14:59:33.881Z,2.67
2022-12-08T15:02:16.242Z,3.35
2022-12-08T15:04:48.833Z,4.13
2022-12-08T15:07:28.517Z,3.08
2022-12-08T15:10:16.451Z,3.65
2022-12-08T15:13:05.688Z,1.15
2022-12-08T15:15:46.898Z,4.82
2022-12-08T15:18:48.510Z,4.82
2022-12-08T15:21:15.876Z,4.72
2022-12-08T15:23:50.163Z,3.13
2022-12-08T15:26:24.668Z,2.40
2022-12-08T15:28:52.157Z,3.53
2022-12-08T15:31:19.710Z,4.40
2022-12-08T15:33:47.542Z,2.55
2022-12-08T15:36:14.853Z,3.55
2022-12-08T15:38:42.492Z,5.38
2022-12-08T15:41:14.601Z,3.47
2022-12-08T15:43:42.562Z,3.58
2022-12-08T15:46:10.059Z,5.65
2022-12-08T15:48:38.059Z,6.57
2022-12-08T15:51:05.484Z,5.93
2022-12-08T15:53:32.971Z,5.63
2022-12-08T15:56:26.805Z,7.68
2022-12-08T15:58:53.998Z,4.97
2022-12-08T16:01:23.022Z,10.55
2022-12-08T16:09:35.644Z,7.53
2022-12-08T16:12:23.820Z,5.50
2022-12-08T16:17:40.884Z,8.93
2022-12-08T16:20:13.200Z,4.20
2022-12-08T16:25:41.041Z,6.22
2022-12-08T16:28:52.354Z,5.35
2022-12-08T16:31:10.262Z,6.28
2022-12-08T16:33:44.523Z,6.00
2022-12-08T16:36:12.543Z,7.13
2022-12-08T16:38:40.446Z,8.23
2022-12-08T16:41:33.893Z,6.32
2022-12-08T16:44:06.764Z,7.95
2022-12-08T16:49:05.797Z,5.47
2022-12-08T16:51:41.090Z,3.13
2022-12-08T16:54:09.950Z,4.07
2022-12-08T16:56:38.011Z,3.55
2022-12-08T16:59:08.209Z,7.75
2022-12-08T17:01:36.177Z,7.95
2022-12-08T17:06:53.252Z,5.88
2022-12-08T17:09:21.685Z,6.75
2022-12-08T17:11:51.650Z,6.47
2022-12-08T17:14:20.198Z,7.40
2022-12-08T17:16:50.467Z,6.80
2022-12-08T17:19:19.198Z,5.30
2022-12-08T17:21:47.754Z,8.45
2022-12-08T17:26:53.048Z,8.98
2022-12-08T17:29:20.987Z,11.90
2022-12-08T17:31:49.031Z,14.07
2022-12-08T17:34:17.592Z,17.10
2022-12-08T17:36:47.209Z,19.40
2022-12-08T17:39:18.644Z,19.05
2022-12-08T17:41:52.548Z,22.08
2022-12-08T17:44:21.836Z,22.00
2022-12-08T17:46:55.157Z,22.85
2022-12-08T17:49:25.749Z,21.92
2022-12-08T17:51:57.017Z,19.65
2022-12-08T17:54:24.657Z,22.52
2022-12-08T17:56:53.017Z,18.98
2022-12-08T17:59:20.815Z,22.75
2022-12-08T18:01:48.669Z,19.88
2022-12-08T18:04:17.761Z,18.98
2022-12-08T18:06:46.929Z,16.27
2022-12-08T18:09:15.667Z,18.40
2022-12-08T18:11:44.318Z,21.20
2022-12-08T18:14:12.725Z,23.10
2022-12-08T18:16:53.022Z,21.60
2022-12-08T18:19:26.482Z,23.15
2022-12-08T18:21:54.464Z,20.20
2022-12-08T18:24:23.797Z,22.90
2022-12-08T18:26:52.754Z,20.50
2022-12-08T18:29:21.093Z,19.17
2022-12-08T18:31:48.780Z,13.90
2022-12-08T18:34:16.075Z,16.13
2022-12-08T18:36:49.174Z,14.65
2022-12-08T18:39:24.665Z,14.98
2022-12-08T18:41:56.917Z,13.85
2022-12-08T18:44:50.332Z,12.27
2022-12-08T18:47:26.718Z,12.07
2022-12-08T18:49:57.306Z,12.40
2022-12-08T18:52:31.587Z,12.57
2022-12-08T18:55:07.613Z,9.55
2022-12-08T18:57:38.356Z,12.00
2022-12-08T19:00:11.630Z,15.73
2022-12-08T19:02:44.493Z,14.30
2022-12-08T19:07:48.720Z,19.70
2022-12-08T19:10:22.574Z,16.08
2022-12-08T19:12:53.764Z,13.57
2022-12-08T19:15:22.499Z,17.88
2022-12-08T19:17:55.371Z,12.15
2022-12-08T19:22:52.425Z,12.63
2022-12-08T19:25:22.520Z,13.40
2022-12-08T19:27:54.644Z,14.88
2022-12-08T19:30:26.600Z,10.73
2022-12-08T19:35:33.319Z,13.63
2022-12-08T19:38:01.662Z,12.05
2022-12-08T19:40:47.594Z,14.43
2022-12-08T19:43:38.631Z,12.80
2022-12-08T19:46:06.834Z,10.27
2022-12-08T19:48:34.521Z,10.02
2022-12-08T19:51:04.273Z,11.95
2022-12-08T19:53:31.905Z,8.98
2022-12-08T19:55:59.460Z,7.97
2022-12-08T19:58:26.797Z,6.93
2022-12-08T20:00:54.396Z,9.45
2022-12-08T20:03:22.918Z,8.43
2022-12-08T20:05:52.751Z,13.88
2022-12-08T20:08:20.250Z,10.15
2022-12-08T20:10:47.586Z,8.90
2022-12-08T20:13:33.288Z,10.98
2022-12-08T20:16:00.756Z,10.80
2022-12-08T20:18:28.845Z,9.82
2022-12-08T20:20:57.038Z,14.75
2022-12-08T20:23:24.604Z,12.98
2022-12-08T20:25:52.033Z,14.55
2022-12-08T20:28:19.475Z,16.02
2022-12-08T20:30:52.630Z,10.40
2022-12-08T20:33:20.303Z,12.55
2022-12-08T20:35:48.035Z,14.98
2022-12-08T20:38:16.241Z,16.98
2022-12-08T20:40:44.286Z,11.88
2022-12-08T20:43:11.983Z,15.05
2022-12-08T20:45:39.411Z,12.65
2022-12-08T20:48:07.009Z,13.63
2022-12-08T20:50:34.460Z,11.63
2022-12-08T20:53:01.811Z,18.42
2022-12-08T20:55:29.350Z,11.75
2022-12-08T20:57:57.050Z,17.98
2022-12-08T21:00:26.075Z,13.02
2022-12-08T21:02:56.804Z,18.77
2022-12-08T21:05:24.879Z,21.27
2022-12-08T21:07:52.597Z,13.52
2022-12-08T21:10:20.032Z,17.38
2022-12-08T21:12:47.594Z,15.32
2022-12-08T21:15:14.945Z,16.23
2022-12-08T21:17:42.597Z,18.60
2022-12-08T21:20:10.886Z,19.45
2022-12-08T21:22:40.358Z,21.40
2022-12-08T21:25:09.186Z,26.38
2022-12-08T21:27:37.854Z,31.95
2022-12-08T21:30:06.444Z,36.33
2022-12-08T21:32:34.505Z,39.38
2022-12-08T21:35:02.275Z,39.28
2022-12-08T21:37:30.156Z,43.08
2022-12-08T21:39:57.544Z,40.95
2022-12-08T21:42:43.972Z,46.67
2022-12-08T21:45:19.121Z,51.90
2022-12-08T21:47:47.587Z,58.80
2022-12-08T21:50:15.522Z,58.55
2022-12-08T21:52:45.363Z,53.13
2022-12-08T21:55:13.808Z,59.13
2022-12-08T21:57:41.732Z,62.85
2022-12-08T22:00:11.714Z,63.28
2022-12-08T22:02:39.695Z,59.67
2022-12-08T22:05:07.828Z,67.43
2022-12-08T22:07:39.492Z,57.20
2022-12-08T22:10:11.879Z,66.57
2022-12-08T22:12:40.297Z,72.13
2022-12-08T22:15:09.043Z,83.60
2022-12-08T22:17:38.374Z,75.75
2022-12-08T22:20:12.540Z,89.22
2022-12-08T22:22:40.600Z,86.00
2022-12-08T22:25:12.681Z,89.20
2022-12-08T22:27:41.027Z,94.78
2022-12-08T22:30:09.914Z,92.80
2022-12-08T22:32:37.778Z,96.10
2022-12-08T22:35:05.635Z,92.60
2022-12-08T22:37:33.163Z,102.30
2022-12-08T22:40:00.563Z,99.68
2022-12-08T22:42:28.565Z,102.20
2022-12-08T22:44:55.796Z,115.13
2022-12-08T22:47:22.995Z,92.38
2022-12-08T22:49:50.296Z,101.38
2022-12-08T22:52:17.679Z,100.03
2022-12-08T22:54:45.088Z,91.85
2022-12-08T22:57:12.410Z,93.43
2022-12-08T22:59:40.979Z,92.10
2022-12-08T23:02:08.735Z,94.00
2022-12-08T23:04:36.570Z,87.70
2022-12-08T23:07:04.233Z,82.97
2022-12-08T23:09:31.699Z,85.45
2022-12-08T23:11:59.150Z,90.28
2022-12-08T23:14:26.502Z,88.88
2022-12-08T23:16:53.949Z,88.60
2022-12-08T23:19:21.574Z,89.05
2022-12-08T23:21:48.824Z,89.65
2022-12-08T23:24:16.293Z,87.03
2022-12-08T23:26:44.364Z,85.80
2022-12-08T23:29:11.744Z,88.88
2022-12-08T23:31:39.359Z,86.05
2022-12-08T23:34:06.945Z,86.70
2022-12-08T23:36:34.432Z,82.68
2022-12-08T23:39:01.901Z,95.10
2022-12-08T23:41:29.188Z,98.18
2022-12-08T23:43:56.857Z,89.50
2022-12-08T23:46:24.589Z,93.10
2022-12-08T23:48:51.923Z,92.15
2022-12-08T23:51:20.102Z,92.55
2022-12-08T23:53:47.730Z,102.25
2022-12-08T23:56:17.367Z,111.53
2022-12-08T23:58:45.511Z,84.93
